sensor_id;sensor_type;location;lat;lon;timestamp;P1;durP1;ratioP1;P2;durP2;ratioP2
18754;SDS011;35061;47.664;9.166;2023-03-17T00:00:43;3.78;;;3.17;;
18754;SDS011;35061;47.664;9.166;2023-03-17T00:03:18;4.85;;;2.90;;
18754;SDS011;35061;47.664;9.166;2023-03-17T00:05:48;5.05;;;3.00;;
18754;SDS011;35061;47.664;9.166;2023-03-17T00:08:19;4.30;;;2.80;;
18754;SDS011;35061;47.664;9.166;2023-03-17T00:10:52;4.05;;;2.55;;
18754;SDS011;35061;47.664;9.166;2023-03-17T00:13:21;6.82;;;3.40;;
18754;SDS011;35061;47.664;9.166;2023-03-17T00:15:54;5.95;;;3.75;;
18754;SDS011;35061;47.664;9.166;2023-03-17T00:18:25;5.05;;;3.70;;
18754;SDS011;35061;47.664;9.166;2023-03-17T00:20:53;4.70;;;3.17;;
18754;SDS011;35061;47.664;9.166;2023-03-17T00:23:22;4.65;;;3.28;;
18754;SDS011;35061;47.664;9.166;2023-03-17T00:25:51;7.45;;;3.25;;
18754;SDS011;35061;47.664;9.166;2023-03-17T00:28:24;4.72;;;2.58;;
18754;SDS011;35061;47.664;9.166;2023-03-17T00:30:54;4.93;;;2.92;;
18754;SDS011;35061;47.664;9.166;2023-03-17T00:33:26;2.83;;;2.47;;
18754;SDS011;35061;47.664;9.166;2023-03-17T00:35:59;3.58;;;2.42;;
18754;SDS011;35061;47.664;9.166;2023-03-17T00:38:27;4.07;;;2.55;;
18754;SDS011;35061;47.664;9.166;2023-03-17T00:40:55;3.87;;;3.05;;
18754;SDS011;35061;47.664;9.166;2023-03-17T00:43:23;5.05;;;3.28;;
18754;SDS011;35061;47.664;9.166;2023-03-17T00:45:51;4.10;;;2.70;;
18754;SDS011;35061;47.664;9.166;2023-03-17T00:48:20;4.87;;;3.00;;
18754;SDS011;35061;47.664;9.166;2023-03-17T00:50:49;3.72;;;2.58;;
18754;SDS011;35061;47.664;9.166;2023-03-17T00:53:18;3.70;;;2.50;;
18754;SDS011;35061;47.664;9.166;2023-03-17T00:55:47;3.45;;;2.45;;
18754;SDS011;35061;47.664;9.166;2023-03-17T01:00:55;5.30;;;2.83;;
18754;SDS011;35061;47.664;9.166;2023-03-17T01:03:23;4.43;;;2.60;;
18754;SDS011;35061;47.664;9.166;2023-03-17T01:05:52;2.62;;;2.33;;
18754;SDS011;35061;47.664;9.166;2023-03-17T01:08:23;3.83;;;2.72;;
18754;SDS011;35061;47.664;9.166;2023-03-17T01:10:52;3.70;;;2.53;;
18754;SDS011;35061;47.664;9.166;2023-03-17T01:13:19;2.83;;;2.53;;
18754;SDS011;35061;47.664;9.166;2023-03-17T01:15:48;3.03;;;2.30;;
18754;SDS011;35061;47.664;9.166;2023-03-17T01:18:18;3.10;;;2.00;;
18754;SDS011;35061;47.664;9.166;2023-03-17T01:20:49;2.40;;;2.15;;
18754;SDS011;35061;47.664;9.166;2023-03-17T01:23:17;3.25;;;2.00;;
18754;SDS011;35061;47.664;9.166;2023-03-17T01:25:45;2.60;;;1.90;;
18754;SDS011;35061;47.664;9.166;2023-03-17T01:28:14;2.85;;;2.10;;
18754;SDS011;35061;47.664;9.166;2023-03-17T01:30:44;3.45;;;2.17;;
18754;SDS011;35061;47.664;9.166;2023-03-17T01:33:12;2.45;;;2.25;;
18754;SDS011;35061;47.664;9.166;2023-03-17T01:35:41;4.85;;;2.12;;
18754;SDS011;35061;47.664;9.166;2023-03-17T01:38:12;4.55;;;2.22;;
18754;SDS011;35061;47.664;9.166;2023-03-17T01:40:43;2.45;;;2.10;;
18754;SDS011;35061;47.664;9.166;2023-03-17T01:43:23;3.10;;;2.17;;
18754;SDS011;35061;47.664;9.166;2023-03-17T01:48:53;2.37;;;2.17;;
18754;SDS011;35061;47.664;9.166;2023-03-17T01:51:26;3.60;;;2.17;;
18754;SDS011;35061;47.664;9.166;2023-03-17T01:53:59;3.22;;;1.95;;
18754;SDS011;35061;47.664;9.166;2023-03-17T01:56:29;2.50;;;2.00;;
18754;SDS011;35061;47.664;9.166;2023-03-17T01:58:58;2.47;;;2.03;;
18754;SDS011;35061;47.664;9.166;2023-03-17T02:01:31;3.00;;;2.47;;
18754;SDS011;35061;47.664;9.166;2023-03-17T02:04:04;2.30;;;2.10;;
18754;SDS011;35061;47.664;9.166;2023-03-17T02:06:32;2.67;;;2.37;;
18754;SDS011;35061;47.664;9.166;2023-03-17T02:09:12;3.97;;;2.22;;
18754;SDS011;35061;47.664;9.166;2023-03-17T02:11:40;2.80;;;2.28;;
18754;SDS011;35061;47.664;9.166;2023-03-17T02:14:08;4.40;;;2.85;;
18754;SDS011;35061;47.664;9.166;2023-03-17T02:16:36;4.03;;;2.78;;
18754;SDS011;35061;47.664;9.166;2023-03-17T02:19:04;4.03;;;2.55;;
18754;SDS011;35061;47.664;9.166;2023-03-17T02:21:42;4.65;;;2.47;;
18754;SDS011;35061;47.664;9.166;2023-03-17T02:24:27;5.05;;;2.92;;
18754;SDS011;35061;47.664;9.166;2023-03-17T02:27:07;2.62;;;1.90;;
18754;SDS011;35061;47.664;9.166;2023-03-17T02:29:41;2.87;;;2.47;;
18754;SDS011;35061;47.664;9.166;2023-03-17T02:32:13;3.42;;;2.67;;
18754;SDS011;35061;47.664;9.166;2023-03-17T02:34:47;4.10;;;2.40;;
18754;SDS011;35061;47.664;9.166;2023-03-17T02:37:16;3.47;;;2.30;;
18754;SDS011;35061;47.664;9.166;2023-03-17T02:39:45;4.78;;;2.78;;
18754;SDS011;35061;47.664;9.166;2023-03-17T02:42:13;4.00;;;2.72;;
18754;SDS011;35061;47.664;9.166;2023-03-17T02:44:41;3.35;;;2.47;;
18754;SDS011;35061;47.664;9.166;2023-03-17T02:47:09;5.10;;;2.67;;
18754;SDS011;35061;47.664;9.166;2023-03-17T02:49:37;4.87;;;2.53;;
18754;SDS011;35061;47.664;9.166;2023-03-17T02:52:07;5.03;;;2.60;;
18754;SDS011;35061;47.664;9.166;2023-03-17T02:54:35;3.95;;;2.80;;
18754;SDS011;35061;47.664;9.166;2023-03-17T02:57:03;2.97;;;2.50;;
18754;SDS011;35061;47.664;9.166;2023-03-17T02:59:31;3.75;;;2.87;;
18754;SDS011;35061;47.664;9.166;2023-03-17T03:01:59;3.62;;;2.83;;
18754;SDS011;35061;47.664;9.166;2023-03-17T03:04:27;3.25;;;2.83;;
18754;SDS011;35061;47.664;9.166;2023-03-17T03:06:55;4.30;;;2.83;;
18754;SDS011;35061;47.664;9.166;2023-03-17T03:09:24;5.18;;;3.10;;
18754;SDS011;35061;47.664;9.166;2023-03-17T03:11:52;4.93;;;3.35;;
18754;SDS011;35061;47.664;9.166;2023-03-17T03:14:21;5.22;;;3.05;;
18754;SDS011;35061;47.664;9.166;2023-03-17T03:16:50;3.62;;;2.40;;
18754;SDS011;35061;47.664;9.166;2023-03-17T03:19:18;3.47;;;2.90;;
18754;SDS011;35061;47.664;9.166;2023-03-17T03:21:47;3.30;;;2.72;;
18754;SDS011;35061;47.664;9.166;2023-03-17T03:24:15;3.42;;;2.87;;
18754;SDS011;35061;47.664;9.166;2023-03-17T03:26:43;3.28;;;2.47;;
18754;SDS011;35061;47.664;9.166;2023-03-17T03:29:11;6.47;;;3.35;;
18754;SDS011;35061;47.664;9.166;2023-03-17T03:31:38;3.42;;;2.90;;
18754;SDS011;35061;47.664;9.166;2023-03-17T03:34:06;3.67;;;2.97;;
18754;SDS011;35061;47.664;9.166;2023-03-17T03:36:34;4.85;;;3.22;;
18754;SDS011;35061;47.664;9.166;2023-03-17T03:39:03;6.97;;;3.62;;
18754;SDS011;35061;47.664;9.166;2023-03-17T03:41:31;4.78;;;3.45;;
18754;SDS011;35061;47.664;9.166;2023-03-17T03:43:58;4.53;;;3.35;;
18754;SDS011;35061;47.664;9.166;2023-03-17T03:46:26;5.15;;;3.42;;
18754;SDS011;35061;47.664;9.166;2023-03-17T03:48:55;4.60;;;2.72;;
18754;SDS011;35061;47.664;9.166;2023-03-17T03:51:22;4.60;;;3.53;;
18754;SDS011;35061;47.664;9.166;2023-03-17T03:53:50;5.82;;;3.40;;
18754;SDS011;35061;47.664;9.166;2023-03-17T03:56:18;4.75;;;3.58;;
18754;SDS011;35061;47.664;9.166;2023-03-17T03:58:46;4.60;;;3.22;;
18754;SDS011;35061;47.664;9.166;2023-03-17T04:01:13;4.40;;;3.05;;
18754;SDS011;35061;47.664;9.166;2023-03-17T04:03:41;3.50;;;2.80;;
18754;SDS011;35061;47.664;9.166;2023-03-17T04:06:09;5.37;;;3.12;;
18754;SDS011;35061;47.664;9.166;2023-03-17T04:08:37;2.95;;;2.65;;
18754;SDS011;35061;47.664;9.166;2023-03-17T04:11:05;3.42;;;2.40;;
18754;SDS011;35061;47.664;9.166;2023-03-17T04:13:33;4.95;;;2.33;;
18754;SDS011;35061;47.664;9.166;2023-03-17T04:16:00;3.15;;;2.30;;
18754;SDS011;35061;47.664;9.166;2023-03-17T04:18:29;3.47;;;2.58;;
18754;SDS011;35061;47.664;9.166;2023-03-17T04:20:58;2.97;;;2.12;;
18754;SDS011;35061;47.664;9.166;2023-03-17T04:29:58;2.37;;;2.17;;
18754;SDS011;35061;47.664;9.166;2023-03-17T04:32:28;9.93;;;2.70;;
18754;SDS011;35061;47.664;9.166;2023-03-17T04:34:55;3.83;;;2.62;;
18754;SDS011;35061;47.664;9.166;2023-03-17T04:37:24;3.25;;;2.37;;
18754;SDS011;35061;47.664;9.166;2023-03-17T04:39:52;3.05;;;2.70;;
18754;SDS011;35061;47.664;9.166;2023-03-17T04:42:21;3.95;;;2.75;;
18754;SDS011;35061;47.664;9.166;2023-03-17T04:44:49;3.70;;;2.87;;
18754;SDS011;35061;47.664;9.166;2023-03-17T04:47:16;3.83;;;2.90;;
18754;SDS011;35061;47.664;9.166;2023-03-17T04:49:44;3.75;;;3.05;;
18754;SDS011;35061;47.664;9.166;2023-03-17T04:52:12;3.85;;;2.83;;
18754;SDS011;35061;47.664;9.166;2023-03-17T04:54:40;4.35;;;3.12;;
18754;SDS011;35061;47.664;9.166;2023-03-17T04:57:08;4.62;;;3.08;;
18754;SDS011;35061;47.664;9.166;2023-03-17T04:59:36;4.65;;;2.62;;
18754;SDS011;35061;47.664;9.166;2023-03-17T05:02:04;4.05;;;2.62;;
18754;SDS011;35061;47.664;9.166;2023-03-17T05:04:32;4.00;;;2.62;;
18754;SDS011;35061;47.664;9.166;2023-03-17T05:06:59;3.22;;;2.90;;
18754;SDS011;35061;47.664;9.166;2023-03-17T05:09:27;4.05;;;3.03;;
18754;SDS011;35061;47.664;9.166;2023-03-17T05:11:55;4.45;;;3.17;;
18754;SDS011;35061;47.664;9.166;2023-03-17T05:14:22;4.40;;;3.28;;
18754;SDS011;35061;47.664;9.166;2023-03-17T05:16:50;6.03;;;3.28;;
18754;SDS011;35061;47.664;9.166;2023-03-17T05:19:18;3.95;;;3.15;;
18754;SDS011;35061;47.664;9.166;2023-03-17T05:21:46;5.22;;;3.17;;
18754;SDS011;35061;47.664;9.166;2023-03-17T05:24:14;4.30;;;3.10;;
18754;SDS011;35061;47.664;9.166;2023-03-17T05:26:42;4.03;;;3.35;;
18754;SDS011;35061;47.664;9.166;2023-03-17T05:29:10;5.03;;;3.60;;
18754;SDS011;35061;47.664;9.166;2023-03-17T05:31:38;5.45;;;3.15;;
18754;SDS011;35061;47.664;9.166;2023-03-17T05:34:06;7.65;;;3.35;;
18754;SDS011;35061;47.664;9.166;2023-03-17T05:36:33;6.07;;;3.55;;
18754;SDS011;35061;47.664;9.166;2023-03-17T05:39:03;5.93;;;3.03;;
18754;SDS011;35061;47.664;9.166;2023-03-17T05:41:31;4.65;;;3.00;;
18754;SDS011;35061;47.664;9.166;2023-03-17T05:44:00;4.65;;;3.12;;
18754;SDS011;35061;47.664;9.166;2023-03-17T05:46:27;7.28;;;3.20;;
18754;SDS011;35061;47.664;9.166;2023-03-17T05:48:55;5.05;;;2.92;;
18754;SDS011;35061;47.664;9.166;2023-03-17T05:51:23;5.45;;;2.90;;
18754;SDS011;35061;47.664;9.166;2023-03-17T05:53:51;5.82;;;3.22;;
18754;SDS011;35061;47.664;9.166;2023-03-17T05:56:19;4.20;;;3.17;;
18754;SDS011;35061;47.664;9.166;2023-03-17T05:58:47;6.53;;;3.00;;
18754;SDS011;35061;47.664;9.166;2023-03-17T06:01:15;5.12;;;3.22;;
18754;SDS011;35061;47.664;9.166;2023-03-17T06:03:43;4.80;;;2.87;;
18754;SDS011;35061;47.664;9.166;2023-03-17T06:06:10;5.18;;;4.28;;
18754;SDS011;35061;47.664;9.166;2023-03-17T06:08:38;5.40;;;3.30;;
18754;SDS011;35061;47.664;9.166;2023-03-17T06:11:06;5.65;;;3.33;;
18754;SDS011;35061;47.664;9.166;2023-03-17T06:13:34;4.65;;;3.47;;
18754;SDS011;35061;47.664;9.166;2023-03-17T06:16:02;3.92;;;3.15;;
18754;SDS011;35061;47.664;9.166;2023-03-17T06:18:30;5.93;;;3.70;;
18754;SDS011;35061;47.664;9.166;2023-03-17T06:20:58;5.45;;;3.53;;
18754;SDS011;35061;47.664;9.166;2023-03-17T06:23:26;6.03;;;3.70;;
18754;SDS011;35061;47.664;9.166;2023-03-17T06:25:54;4.00;;;3.42;;
18754;SDS011;35061;47.664;9.166;2023-03-17T06:28:22;6.28;;;3.35;;
18754;SDS011;35061;47.664;9.166;2023-03-17T06:30:50;8.98;;;3.30;;
18754;SDS011;35061;47.664;9.166;2023-03-17T06:33:17;4.65;;;3.72;;
18754;SDS011;35061;47.664;9.166;2023-03-17T06:35:45;3.80;;;2.87;;
18754;SDS011;35061;47.664;9.166;2023-03-17T06:38:13;6.47;;;3.85;;
18754;SDS011;35061;47.664;9.166;2023-03-17T06:40:41;5.07;;;3.20;;
18754;SDS011;35061;47.664;9.166;2023-03-17T06:43:09;6.20;;;3.62;;
18754;SDS011;35061;47.664;9.166;2023-03-17T06:45:37;5.03;;;3.65;;
18754;SDS011;35061;47.664;9.166;2023-03-17T06:48:05;4.12;;;3.35;;
18754;SDS011;35061;47.664;9.166;2023-03-17T06:50:33;4.12;;;3.15;;
18754;SDS011;35061;47.664;9.166;2023-03-17T06:53:00;4.53;;;3.85;;
18754;SDS011;35061;47.664;9.166;2023-03-17T06:55:28;7.22;;;3.83;;
18754;SDS011;35061;47.664;9.166;2023-03-17T06:57:56;6.40;;;3.35;;
18754;SDS011;35061;47.664;9.166;2023-03-17T07:00:25;8.48;;;4.10;;
18754;SDS011;35061;47.664;9.166;2023-03-17T07:02:53;8.02;;;3.78;;
18754;SDS011;35061;47.664;9.166;2023-03-17T07:05:21;7.18;;;5.05;;
18754;SDS011;35061;47.664;9.166;2023-03-17T07:07:49;7.32;;;5.00;;
18754;SDS011;35061;47.664;9.166;2023-03-17T07:10:17;8.35;;;5.32;;
18754;SDS011;35061;47.664;9.166;2023-03-17T07:12:45;7.32;;;4.47;;
18754;SDS011;35061;47.664;9.166;2023-03-17T07:15:13;8.10;;;5.07;;
18754;SDS011;35061;47.664;9.166;2023-03-17T07:17:41;6.07;;;4.20;;
18754;SDS011;35061;47.664;9.166;2023-03-17T07:20:09;7.97;;;4.57;;
18754;SDS011;35061;47.664;9.166;2023-03-17T07:22:38;6.57;;;3.92;;
18754;SDS011;35061;47.664;9.166;2023-03-17T07:25:06;4.18;;;3.60;;
18754;SDS011;35061;47.664;9.166;2023-03-17T07:27:34;7.78;;;3.55;;
18754;SDS011;35061;47.664;9.166;2023-03-17T07:30:02;8.35;;;3.97;;
18754;SDS011;35061;47.664;9.166;2023-03-17T07:32:31;4.95;;;3.72;;
18754;SDS011;35061;47.664;9.166;2023-03-17T07:34:59;5.35;;;3.83;;
18754;SDS011;35061;47.664;9.166;2023-03-17T07:37:27;4.10;;;3.55;;
18754;SDS011;35061;47.664;9.166;2023-03-17T07:39:54;6.37;;;4.10;;
18754;SDS011;35061;47.664;9.166;2023-03-17T07:42:22;4.95;;;4.18;;
18754;SDS011;35061;47.664;9.166;2023-03-17T07:44:50;6.95;;;4.10;;
18754;SDS011;35061;47.664;9.166;2023-03-17T07:47:17;4.97;;;4.30;;
18754;SDS011;35061;47.664;9.166;2023-03-17T07:49:45;6.05;;;4.28;;
18754;SDS011;35061;47.664;9.166;2023-03-17T07:52:13;6.22;;;4.30;;
18754;SDS011;35061;47.664;9.166;2023-03-17T07:54:41;5.32;;;4.07;;
18754;SDS011;35061;47.664;9.166;2023-03-17T07:57:10;6.15;;;4.68;;
18754;SDS011;35061;47.664;9.166;2023-03-17T07:59:38;7.40;;;4.68;;
18754;SDS011;35061;47.664;9.166;2023-03-17T08:02:06;7.10;;;4.87;;
18754;SDS011;35061;47.664;9.166;2023-03-17T08:04:37;6.00;;;4.22;;
18754;SDS011;35061;47.664;9.166;2023-03-17T08:07:05;6.47;;;4.57;;
18754;SDS011;35061;47.664;9.166;2023-03-17T08:09:33;6.60;;;3.95;;
18754;SDS011;35061;47.664;9.166;2023-03-17T08:12:01;5.82;;;4.30;;
18754;SDS011;35061;47.664;9.166;2023-03-17T08:14:29;7.93;;;4.57;;
18754;SDS011;35061;47.664;9.166;2023-03-17T08:16:57;7.90;;;4.68;;
18754;SDS011;35061;47.664;9.166;2023-03-17T08:19:25;6.50;;;4.55;;
18754;SDS011;35061;47.664;9.166;2023-03-17T08:21:53;5.95;;;4.28;;
18754;SDS011;35061;47.664;9.166;2023-03-17T08:24:21;6.18;;;3.95;;
18754;SDS011;35061;47.664;9.166;2023-03-17T08:26:48;9.05;;;4.65;;
18754;SDS011;35061;47.664;9.166;2023-03-17T08:29:16;5.15;;;4.12;;
18754;SDS011;35061;47.664;9.166;2023-03-17T08:31:45;4.95;;;4.05;;
18754;SDS011;35061;47.664;9.166;2023-03-17T08:34:13;6.05;;;4.75;;
18754;SDS011;35061;47.664;9.166;2023-03-17T08:36:42;6.03;;;4.47;;
18754;SDS011;35061;47.664;9.166;2023-03-17T08:39:10;7.72;;;4.80;;
18754;SDS011;35061;47.664;9.166;2023-03-17T08:41:37;7.12;;;4.25;;
18754;SDS011;35061;47.664;9.166;2023-03-17T08:44:05;6.35;;;4.90;;
18754;SDS011;35061;47.664;9.166;2023-03-17T08:46:35;5.90;;;4.70;;
18754;SDS011;35061;47.664;9.166;2023-03-17T08:49:03;6.05;;;4.15;;
18754;SDS011;35061;47.664;9.166;2023-03-17T08:51:32;6.25;;;4.15;;
18754;SDS011;35061;47.664;9.166;2023-03-17T08:54:02;5.12;;;4.30;;
18754;SDS011;35061;47.664;9.166;2023-03-17T08:56:31;5.78;;;4.15;;
18754;SDS011;35061;47.664;9.166;2023-03-17T08:58:59;5.62;;;5.03;;
18754;SDS011;35061;47.664;9.166;2023-03-17T09:01:27;10.23;;;5.70;;
18754;SDS011;35061;47.664;9.166;2023-03-17T09:03:55;7.05;;;4.57;;
18754;SDS011;35061;47.664;9.166;2023-03-17T09:06:23;6.20;;;4.30;;
18754;SDS011;35061;47.664;9.166;2023-03-17T09:08:51;9.23;;;4.75;;
18754;SDS011;35061;47.664;9.166;2023-03-17T09:11:22;5.53;;;4.45;;
18754;SDS011;35061;47.664;9.166;2023-03-17T09:13:52;6.22;;;5.28;;
18754;SDS011;35061;47.664;9.166;2023-03-17T09:16:21;5.85;;;4.75;;
18754;SDS011;35061;47.664;9.166;2023-03-17T09:18:50;5.95;;;4.90;;
18754;SDS011;35061;47.664;9.166;2023-03-17T09:21:19;6.57;;;5.03;;
18754;SDS011;35061;47.664;9.166;2023-03-17T09:23:47;5.40;;;4.90;;
18754;SDS011;35061;47.664;9.166;2023-03-17T09:26:15;6.20;;;5.15;;
18754;SDS011;35061;47.664;9.166;2023-03-17T09:28:42;8.27;;;5.62;;
18754;SDS011;35061;47.664;9.166;2023-03-17T09:31:11;6.12;;;5.20;;
18754;SDS011;35061;47.664;9.166;2023-03-17T09:33:39;5.95;;;4.80;;
18754;SDS011;35061;47.664;9.166;2023-03-17T09:36:08;5.72;;;4.72;;
18754;SDS011;35061;47.664;9.166;2023-03-17T09:38:36;6.78;;;4.70;;
18754;SDS011;35061;47.664;9.166;2023-03-17T09:43:55;5.70;;;4.47;;
18754;SDS011;35061;47.664;9.166;2023-03-17T09:49:18;5.90;;;4.75;;
18754;SDS011;35061;47.664;9.166;2023-03-17T09:51:55;4.85;;;4.32;;
18754;SDS011;35061;47.664;9.166;2023-03-17T09:54:25;5.20;;;4.57;;
18754;SDS011;35061;47.664;9.166;2023-03-17T09:57:09;6.20;;;5.07;;
18754;SDS011;35061;47.664;9.166;2023-03-17T09:59:45;6.47;;;4.95;;
18754;SDS011;35061;47.664;9.166;2023-03-17T10:02:24;6.30;;;5.50;;
18754;SDS011;35061;47.664;9.166;2023-03-17T10:04:56;5.57;;;5.03;;
18754;SDS011;35061;47.664;9.166;2023-03-17T10:07:25;6.12;;;5.03;;
18754;SDS011;35061;47.664;9.166;2023-03-17T10:12:58;6.10;;;5.20;;
18754;SDS011;35061;47.664;9.166;2023-03-17T10:18:18;6.15;;;4.75;;
18754;SDS011;35061;47.664;9.166;2023-03-17T10:21:00;5.87;;;4.93;;
18754;SDS011;35061;47.664;9.166;2023-03-17T10:23:31;5.35;;;4.53;;
18754;SDS011;35061;47.664;9.166;2023-03-17T10:26:23;6.28;;;5.18;;
18754;SDS011;35061;47.664;9.166;2023-03-17T10:28:57;5.75;;;5.07;;
18754;SDS011;35061;47.664;9.166;2023-03-17T10:31:32;6.95;;;5.28;;
18754;SDS011;35061;47.664;9.166;2023-03-17T10:34:15;5.62;;;4.80;;
18754;SDS011;35061;47.664;9.166;2023-03-17T10:39:27;6.53;;;5.70;;
18754;SDS011;35061;47.664;9.166;2023-03-17T10:41:59;6.20;;;4.40;;
18754;SDS011;35061;47.664;9.166;2023-03-17T10:50:16;4.80;;;3.70;;
18754;SDS011;35061;47.664;9.166;2023-03-17T10:55:33;6.37;;;4.90;;
18754;SDS011;35061;47.664;9.166;2023-03-17T11:03:49;7.00;;;4.97;;
18754;SDS011;35061;47.664;9.166;2023-03-17T11:06:18;5.62;;;4.72;;
18754;SDS011;35061;47.664;9.166;2023-03-17T11:08:53;6.90;;;5.43;;
18754;SDS011;35061;47.664;9.166;2023-03-17T11:11:23;7.03;;;5.37;;
18754;SDS011;35061;47.664;9.166;2023-03-17T11:14:04;6.47;;;5.43;;
18754;SDS011;35061;47.664;9.166;2023-03-17T11:16:37;7.05;;;5.35;;
18754;SDS011;35061;47.664;9.166;2023-03-17T11:19:13;6.55;;;5.55;;
18754;SDS011;35061;47.664;9.166;2023-03-17T11:21:58;6.32;;;5.45;;
18754;SDS011;35061;47.664;9.166;2023-03-17T11:24:40;6.37;;;5.28;;
18754;SDS011;35061;47.664;9.166;2023-03-17T11:27:27;7.50;;;5.80;;
18754;SDS011;35061;47.664;9.166;2023-03-17T11:32:49;8.63;;;6.07;;
18754;SDS011;35061;47.664;9.166;2023-03-17T11:35:33;8.43;;;5.95;;
18754;SDS011;35061;47.664;9.166;2023-03-17T11:38:22;7.95;;;6.00;;
18754;SDS011;35061;47.664;9.166;2023-03-17T11:41:11;8.48;;;6.22;;
18754;SDS011;35061;47.664;9.166;2023-03-17T11:57:33;8.55;;;6.32;;
18754;SDS011;35061;47.664;9.166;2023-03-17T12:00:13;7.12;;;5.93;;
18754;SDS011;35061;47.664;9.166;2023-03-17T12:02:53;9.07;;;6.28;;
18754;SDS011;35061;47.664;9.166;2023-03-17T12:05:39;7.37;;;5.18;;
18754;SDS011;35061;47.664;9.166;2023-03-17T12:08:10;6.85;;;5.65;;
18754;SDS011;35061;47.664;9.166;2023-03-17T12:10:51;7.37;;;5.43;;
18754;SDS011;35061;47.664;9.166;2023-03-17T12:13:22;9.43;;;6.00;;
18754;SDS011;35061;47.664;9.166;2023-03-17T12:16:01;7.47;;;5.57;;
18754;SDS011;35061;47.664;9.166;2023-03-17T12:18:38;7.05;;;5.37;;
18754;SDS011;35061;47.664;9.166;2023-03-17T12:21:23;7.22;;;5.25;;
18754;SDS011;35061;47.664;9.166;2023-03-17T12:24:15;7.82;;;5.70;;
18754;SDS011;35061;47.664;9.166;2023-03-17T12:26:51;7.85;;;5.90;;
18754;SDS011;35061;47.664;9.166;2023-03-17T12:32:36;6.97;;;5.22;;
18754;SDS011;35061;47.664;9.166;2023-03-17T12:35:27;7.62;;;5.57;;
18754;SDS011;35061;47.664;9.166;2023-03-17T12:38:03;9.13;;;5.47;;
18754;SDS011;35061;47.664;9.166;2023-03-17T12:41:22;8.27;;;5.47;;
18754;SDS011;35061;47.664;9.166;2023-03-17T12:49:12;8.35;;;5.75;;
18754;SDS011;35061;47.664;9.166;2023-03-17T12:54:48;8.40;;;5.25;;
18754;SDS011;35061;47.664;9.166;2023-03-17T12:57:19;9.65;;;5.82;;
18754;SDS011;35061;47.664;9.166;2023-03-17T12:59:56;7.43;;;5.57;;
18754;SDS011;35061;47.664;9.166;2023-03-17T13:04:55;8.98;;;6.03;;
18754;SDS011;35061;47.664;9.166;2023-03-17T13:15:20;8.48;;;6.47;;
18754;SDS011;35061;47.664;9.166;2023-03-17T13:17:48;8.15;;;5.70;;
18754;SDS011;35061;47.664;9.166;2023-03-17T13:20:20;8.10;;;6.00;;
18754;SDS011;35061;47.664;9.166;2023-03-17T13:38:42;9.27;;;6.55;;
18754;SDS011;35061;47.664;9.166;2023-03-17T13:47:36;11.27;;;6.60;;
18754;SDS011;35061;47.664;9.166;2023-03-17T13:50:13;9.50;;;7.10;;
18754;SDS011;35061;47.664;9.166;2023-03-17T13:52:56;9.45;;;6.75;;
18754;SDS011;35061;47.664;9.166;2023-03-17T14:00:37;11.35;;;7.75;;
18754;SDS011;35061;47.664;9.166;2023-03-17T14:06:09;12.02;;;7.70;;
18754;SDS011;35061;47.664;9.166;2023-03-17T14:08:43;11.23;;;8.07;;
18754;SDS011;35061;47.664;9.166;2023-03-17T14:11:26;12.98;;;8.52;;
18754;SDS011;35061;47.664;9.166;2023-03-17T14:17:03;14.77;;;8.45;;
18754;SDS011;35061;47.664;9.166;2023-03-17T14:19:33;11.73;;;7.32;;
18754;SDS011;35061;47.664;9.166;2023-03-17T14:22:01;10.95;;;7.30;;
18754;SDS011;35061;47.664;9.166;2023-03-17T14:24:31;10.23;;;7.12;;
18754;SDS011;35061;47.664;9.166;2023-03-17T14:27:04;15.02;;;7.85;;
18754;SDS011;35061;47.664;9.166;2023-03-17T14:29:36;10.52;;;6.45;;
18754;SDS011;35061;47.664;9.166;2023-03-17T14:32:14;8.68;;;5.97;;
18754;SDS011;35061;47.664;9.166;2023-03-17T14:34:54;8.52;;;5.60;;
18754;SDS011;35061;47.664;9.166;2023-03-17T14:37:27;9.80;;;6.72;;
18754;SDS011;35061;47.664;9.166;2023-03-17T14:39:55;9.60;;;5.87;;
18754;SDS011;35061;47.664;9.166;2023-03-17T14:42:25;9.43;;;6.25;;
18754;SDS011;35061;47.664;9.166;2023-03-17T14:45:40;9.07;;;6.45;;
18754;SDS011;35061;47.664;9.166;2023-03-17T14:47:55;11.88;;;6.07;;
18754;SDS011;35061;47.664;9.166;2023-03-17T14:50:24;10.20;;;5.72;;
18754;SDS011;35061;47.664;9.166;2023-03-17T14:52:55;7.75;;;5.55;;
18754;SDS011;35061;47.664;9.166;2023-03-17T14:55:42;8.07;;;5.30;;
18754;SDS011;35061;47.664;9.166;2023-03-17T14:58:21;9.65;;;6.25;;
18754;SDS011;35061;47.664;9.166;2023-03-17T15:00:54;9.07;;;6.37;;
18754;SDS011;35061;47.664;9.166;2023-03-17T15:03:29;8.88;;;5.75;;
18754;SDS011;35061;47.664;9.166;2023-03-17T15:06:15;9.25;;;6.78;;
18754;SDS011;35061;47.664;9.166;2023-03-17T15:08:49;11.45;;;6.97;;
18754;SDS011;35061;47.664;9.166;2023-03-17T15:11:23;9.70;;;6.53;;
18754;SDS011;35061;47.664;9.166;2023-03-17T15:14:03;12.15;;;7.05;;
18754;SDS011;35061;47.664;9.166;2023-03-17T15:16:41;9.15;;;6.05;;
18754;SDS011;35061;47.664;9.166;2023-03-17T15:19:19;11.30;;;6.78;;
18754;SDS011;35061;47.664;9.166;2023-03-17T15:21:54;9.25;;;6.10;;
18754;SDS011;35061;47.664;9.166;2023-03-17T15:24:39;9.70;;;6.47;;
18754;SDS011;35061;47.664;9.166;2023-03-17T15:27:15;13.20;;;6.87;;
18754;SDS011;35061;47.664;9.166;2023-03-17T15:29:44;10.10;;;7.03;;
18754;SDS011;35061;47.664;9.166;2023-03-17T15:32:14;9.45;;;6.00;;
18754;SDS011;35061;47.664;9.166;2023-03-17T15:34:53;9.65;;;6.05;;
18754;SDS011;35061;47.664;9.166;2023-03-17T15:37:29;8.80;;;5.43;;
18754;SDS011;35061;47.664;9.166;2023-03-17T15:39:59;11.12;;;6.57;;
18754;SDS011;35061;47.664;9.166;2023-03-17T15:42:29;9.40;;;6.53;;
18754;SDS011;35061;47.664;9.166;2023-03-17T15:44:59;8.50;;;5.85;;
18754;SDS011;35061;47.664;9.166;2023-03-17T15:47:29;11.55;;;6.65;;
18754;SDS011;35061;47.664;9.166;2023-03-17T15:50:00;9.40;;;6.62;;
18754;SDS011;35061;47.664;9.166;2023-03-17T15:52:38;8.95;;;6.45;;
18754;SDS011;35061;47.664;9.166;2023-03-17T15:55:13;9.80;;;5.70;;
18754;SDS011;35061;47.664;9.166;2023-03-17T15:57:43;8.60;;;6.18;;
18754;SDS011;35061;47.664;9.166;2023-03-17T16:00:20;10.77;;;6.43;;
18754;SDS011;35061;47.664;9.166;2023-03-17T16:02:51;13.27;;;8.00;;
18754;SDS011;35061;47.664;9.166;2023-03-17T16:05:24;14.10;;;7.97;;
18754;SDS011;35061;47.664;9.166;2023-03-17T16:07:54;12.63;;;7.75;;
18754;SDS011;35061;47.664;9.166;2023-03-17T16:10:23;12.82;;;7.85;;
18754;SDS011;35061;47.664;9.166;2023-03-17T16:12:57;12.32;;;7.93;;
18754;SDS011;35061;47.664;9.166;2023-03-17T16:15:26;14.18;;;7.53;;
18754;SDS011;35061;47.664;9.166;2023-03-17T16:17:58;12.43;;;8.07;;
18754;SDS011;35061;47.664;9.166;2023-03-17T16:23:16;13.18;;;8.40;;
18754;SDS011;35061;47.664;9.166;2023-03-17T16:25:45;11.75;;;7.85;;
18754;SDS011;35061;47.664;9.166;2023-03-17T16:28:17;14.57;;;8.30;;
18754;SDS011;35061;47.664;9.166;2023-03-17T16:30:50;14.05;;;8.77;;
18754;SDS011;35061;47.664;9.166;2023-03-17T16:35:52;10.85;;;7.62;;
18754;SDS011;35061;47.664;9.166;2023-03-17T16:38:23;11.63;;;6.97;;
18754;SDS011;35061;47.664;9.166;2023-03-17T16:40:53;11.07;;;7.47;;
18754;SDS011;35061;47.664;9.166;2023-03-17T16:43:25;11.93;;;7.75;;
18754;SDS011;35061;47.664;9.166;2023-03-17T16:45:56;11.18;;;7.03;;
18754;SDS011;35061;47.664;9.166;2023-03-17T16:48:25;12.88;;;7.90;;
18754;SDS011;35061;47.664;9.166;2023-03-17T16:50:55;11.32;;;7.50;;
18754;SDS011;35061;47.664;9.166;2023-03-17T16:53:24;11.70;;;7.18;;
18754;SDS011;35061;47.664;9.166;2023-03-17T16:55:53;13.62;;;8.13;;
18754;SDS011;35061;47.664;9.166;2023-03-17T16:58:31;13.80;;;7.50;;
18754;SDS011;35061;47.664;9.166;2023-03-17T17:01:05;12.37;;;7.25;;
18754;SDS011;35061;47.664;9.166;2023-03-17T17:03:38;11.38;;;7.78;;
18754;SDS011;35061;47.664;9.166;2023-03-17T17:06:08;10.55;;;7.72;;